createdAt,value
2019-02-21T00:00:41.289Z,1017.89
2019-02-21T00:05:36.930Z,1017.97
2019-02-21T00:10:32.457Z,1018.05
2019-02-21T00:15:29.162Z,1018.03
2019-02-21T00:20:24.384Z,1017.98
2019-02-21T00:25:20.895Z,1018.01
2019-02-21T00:30:16.563Z,1018.00
2019-02-21T00:35:13.000Z,1017.93
2019-02-21T00:40:08.456Z,1018.00
2019-02-21T00:45:04.162Z,1018.02
2019-02-21T00:49:59.837Z,1017.92
2019-02-21T00:54:55.991Z,1018.00
2019-02-21T00:59:51.396Z,1018.04
2019-02-21T01:04:48.392Z,1018.06
2019-02-21T01:09:44.807Z,1018.06
2019-02-21T01:14:40.348Z,1018.02
2019-02-21T01:19:35.561Z,1018.07
2019-02-21T01:24:31.162Z,1018.07
2019-02-21T01:29:27.164Z,1018.17
2019-02-21T01:34:22.850Z,1018.20
2019-02-21T01:39:18.576Z,1018.20
2019-02-21T01:44:14.271Z,1018.24
2019-02-21T01:49:09.956Z,1018.28
2019-02-21T01:54:06.630Z,1018.32
2019-02-21T01:59:02.947Z,1018.26
2019-02-21T02:03:59.440Z,1018.28
2019-02-21T02:08:54.733Z,1018.27
2019-02-21T02:13:50.508Z,1018.24
2019-02-21T02:18:46.091Z,1018.26
2019-02-21T02:23:41.797Z,1018.32
2019-02-21T02:28:37.586Z,1018.27
2019-02-21T02:33:32.999Z,1018.31
2019-02-21T02:38:28.659Z,1018.33
2019-02-21T02:43:24.372Z,1018.43
2019-02-21T02:48:20.153Z,1018.38
2019-02-21T02:53:17.116Z,1018.23
2019-02-21T02:58:12.289Z,1018.34
2019-02-21T03:03:08.369Z,1018.35
2019-02-21T03:08:04.782Z,1018.35
2019-02-21T03:13:01.499Z,1018.39
2019-02-21T03:17:56.994Z,1018.38
2019-02-21T03:22:52.630Z,1018.36
2019-02-21T03:27:48.118Z,1018.37
2019-02-21T03:32:43.333Z,1018.43
2019-02-21T03:37:39.974Z,1018.26
2019-02-21T03:42:35.186Z,1018.20
2019-02-21T03:47:30.860Z,1018.32
2019-02-21T03:52:27.276Z,1018.36
2019-02-21T03:57:23.781Z,1018.33
2019-02-21T04:02:19.117Z,1018.21
2019-02-21T04:07:14.848Z,1018.34
2019-02-21T04:12:10.883Z,1018.38
2019-02-21T04:17:06.799Z,1018.43
2019-02-21T04:22:02.639Z,1018.37
2019-02-21T04:26:58.168Z,1018.37
2019-02-21T04:31:53.719Z,1018.31
2019-02-21T04:36:51.137Z,1018.28
2019-02-21T04:41:46.663Z,1018.15
2019-02-21T04:46:42.340Z,1018.21
2019-02-21T04:51:38.175Z,1018.15
2019-02-21T04:56:33.922Z,1018.24
2019-02-21T05:01:30.543Z,1018.17
2019-02-21T05:06:25.979Z,1018.22
2019-02-21T05:11:21.571Z,1018.22
2019-02-21T05:16:18.287Z,1018.25
2019-02-21T05:21:13.761Z,1018.18
2019-02-21T05:26:09.784Z,1018.18
2019-02-21T05:31:05.356Z,1018.20
2019-02-21T05:36:01.166Z,1018.23
2019-02-21T05:40:56.729Z,1018.27
2019-02-21T05:45:52.434Z,1018.23
2019-02-21T05:50:48.224Z,1018.22
2019-02-21T05:55:43.713Z,1018.18
2019-02-21T06:00:40.108Z,1018.27
2019-02-21T06:05:36.817Z,1018.28
2019-02-21T06:10:32.230Z,1018.31
2019-02-21T06:15:28.978Z,1018.35
2019-02-21T06:20:25.123Z,1018.39
2019-02-21T06:25:21.890Z,1018.32
2019-02-21T06:30:17.325Z,1018.38
2019-02-21T06:35:13.092Z,1018.33
2019-02-21T06:40:08.693Z,1018.43
2019-02-21T06:45:04.479Z,1018.48
2019-02-21T06:50:01.104Z,1018.41
2019-02-21T06:54:56.640Z,1018.42
2019-02-21T06:59:53.413Z,1018.43
2019-02-21T07:04:50.232Z,1018.56
2019-02-21T07:09:47.414Z,1018.68
2019-02-21T07:14:43.306Z,1018.71
2019-02-21T07:19:38.948Z,1018.71
2019-02-21T07:24:34.745Z,1018.88
2019-02-21T07:29:30.569Z,1018.76
2019-02-21T07:34:26.566Z,1018.80
2019-02-21T07:39:22.662Z,1018.81
2019-02-21T07:44:18.577Z,1018.91
2019-02-21T07:49:15.338Z,1018.96
2019-02-21T07:54:11.045Z,1019.00
2019-02-21T07:59:06.915Z,1019.00
2019-02-21T08:04:02.874Z,1019.08
2019-02-21T08:08:59.433Z,1019.14
2019-02-21T08:13:55.493Z,1019.18
2019-02-21T08:18:51.377Z,1019.10
2019-02-21T08:23:50.440Z,1019.14
2019-02-21T08:28:46.536Z,1019.11
2019-02-21T08:33:42.100Z,1019.24
2019-02-21T08:38:37.868Z,1019.21
2019-02-21T08:43:37.097Z,1019.36
2019-02-21T08:48:32.187Z,1019.29
2019-02-21T08:53:28.841Z,1019.30
2019-02-21T08:58:25.957Z,1019.37
2019-02-21T09:03:22.186Z,1019.52
2019-02-21T09:08:19.143Z,1019.54
2019-02-21T09:13:15.326Z,1019.60
2019-02-21T09:18:11.054Z,1019.53
2019-02-21T09:23:07.699Z,1019.58
2019-02-21T09:28:02.960Z,1019.67
2019-02-21T09:32:58.507Z,1019.66
2019-02-21T09:37:54.510Z,1019.74
2019-02-21T09:42:50.489Z,1019.61
2019-02-21T09:47:46.962Z,1019.71
2019-02-21T09:52:43.884Z,1019.77
2019-02-21T09:57:39.553Z,1019.80
2019-02-21T10:02:37.022Z,1019.86
2019-02-21T10:07:33.808Z,1019.84
2019-02-21T10:12:29.542Z,1019.84
2019-02-21T10:17:25.256Z,1019.74
2019-02-21T10:22:21.301Z,1019.71
2019-02-21T10:27:18.302Z,1019.77
2019-02-21T10:32:15.030Z,1019.75
2019-02-21T10:37:11.804Z,1019.82
2019-02-21T10:42:07.310Z,1019.64
2019-02-21T10:47:04.059Z,1019.80
2019-02-21T10:51:59.524Z,1019.66
2019-02-21T10:56:55.449Z,1019.54
2019-02-21T11:01:51.274Z,1019.46
2019-02-21T11:06:47.272Z,1019.53
2019-02-21T11:11:43.198Z,1019.45
2019-02-21T11:16:40.086Z,1019.50
2019-02-21T11:21:37.109Z,1019.54
2019-02-21T11:26:33.679Z,1019.47
2019-02-21T11:31:29.126Z,1019.47
2019-02-21T11:36:24.185Z,1019.43
2019-02-21T11:41:21.013Z,1019.45
2019-02-21T11:46:16.318Z,1019.51
2019-02-21T11:51:11.885Z,1019.52
2019-02-21T11:56:08.797Z,1019.39
2019-02-21T12:01:05.797Z,1019.27
2019-02-21T12:06:02.231Z,1019.34
2019-02-21T12:10:58.280Z,1019.31
2019-02-21T12:15:54.402Z,1019.29
2019-02-21T12:20:51.705Z,1019.25
2019-02-21T12:25:47.275Z,1019.21
2019-02-21T12:30:43.418Z,1019.21
2019-02-21T12:35:39.214Z,1019.42
2019-02-21T12:40:35.482Z,1019.26
2019-02-21T12:45:30.925Z,1019.32
2019-02-21T12:50:27.492Z,1019.35
2019-02-21T12:55:29.374Z,1019.35
2019-02-21T13:00:22.430Z,1019.28
2019-02-21T13:05:18.359Z,1019.37
2019-02-21T13:10:14.834Z,1019.30
2019-02-21T13:15:11.106Z,1019.28
2019-02-21T13:20:07.212Z,1019.44
2019-02-21T13:25:03.286Z,1019.32
2019-02-21T13:29:59.198Z,1019.32
2019-02-21T13:34:54.999Z,1019.36
2019-02-21T13:39:51.802Z,1019.35
2019-02-21T13:44:48.409Z,1019.28
2019-02-21T13:49:44.796Z,1019.32
2019-02-21T13:54:40.279Z,1019.34
2019-02-21T13:59:35.924Z,1019.40
2019-02-21T14:04:31.575Z,1019.37
2019-02-21T14:09:27.532Z,1019.42
2019-02-21T14:14:23.433Z,1019.36
2019-02-21T14:19:19.729Z,1019.35
2019-02-21T14:24:15.520Z,1019.45
2019-02-21T14:29:11.207Z,1019.45
2019-02-21T14:34:06.968Z,1019.41
2019-02-21T14:39:02.835Z,1019.43
2019-02-21T14:44:00.493Z,1019.42
2019-02-21T14:48:55.889Z,1019.40
2019-02-21T14:53:51.867Z,1019.41
2019-02-21T14:58:48.694Z,1019.53
2019-02-21T15:03:44.275Z,1019.63
2019-02-21T15:08:41.309Z,1019.64
2019-02-21T15:13:36.688Z,1019.49
2019-02-21T15:18:32.382Z,1019.69
2019-02-21T15:23:28.955Z,1019.64
2019-02-21T15:28:24.623Z,1019.80
2019-02-21T15:33:20.497Z,1019.77
2019-02-21T15:38:19.850Z,1019.79
2019-02-21T15:43:14.765Z,1019.75
2019-02-21T15:48:10.456Z,1019.81
2019-02-21T15:53:06.037Z,1019.81
2019-02-21T15:58:04.205Z,1019.86
2019-02-21T16:02:59.640Z,1019.92
2019-02-21T16:07:55.249Z,1019.95
2019-02-21T16:12:51.295Z,1020.00
2019-02-21T16:17:49.133Z,1020.01
2019-02-21T16:22:44.255Z,1020.03
2019-02-21T16:27:40.202Z,1020.03
2019-02-21T16:32:35.830Z,1020.00
2019-02-21T16:37:32.028Z,1019.97
2019-02-21T16:42:30.397Z,1019.98
2019-02-21T16:47:26.345Z,1019.99
2019-02-21T16:52:23.200Z,1020.06
2019-02-21T16:57:19.779Z,1020.05
2019-02-21T17:02:17.095Z,1020.04
2019-02-21T17:07:20.007Z,1020.12
2019-02-21T17:12:13.076Z,1020.20
2019-02-21T17:17:09.734Z,1020.32
2019-02-21T17:22:05.278Z,1020.33
2019-02-21T17:27:00.714Z,1020.45
2019-02-21T17:31:56.850Z,1020.51
2019-02-21T17:36:52.651Z,1020.52
2019-02-21T17:41:48.603Z,1020.68
2019-02-21T17:46:44.541Z,1020.74
2019-02-21T17:51:40.286Z,1020.82
2019-02-21T17:56:35.985Z,1020.76
2019-02-21T18:01:32.175Z,1020.88
2019-02-21T18:06:28.837Z,1020.86
2019-02-21T18:11:24.520Z,1020.95
2019-02-21T18:16:21.376Z,1020.97
2019-02-21T18:21:16.765Z,1021.08
2019-02-21T18:26:13.245Z,1021.17
2019-02-21T18:31:10.208Z,1021.16
2019-02-21T18:36:05.506Z,1021.27
2019-02-21T18:41:02.358Z,1021.29
2019-02-21T18:45:59.622Z,1021.26
2019-02-21T18:50:54.777Z,1021.32
2019-02-21T18:55:50.403Z,1021.38
2019-02-21T19:00:46.074Z,1021.31
2019-02-21T19:05:42.102Z,1021.39
2019-02-21T19:10:37.898Z,1021.27
2019-02-21T19:15:33.669Z,1021.27
2019-02-21T19:20:29.482Z,1021.27
2019-02-21T19:25:25.338Z,1021.35
2019-02-21T19:30:21.297Z,1021.42
2019-02-21T19:35:17.769Z,1021.52
2019-02-21T19:40:14.290Z,1021.57
2019-02-21T19:45:10.089Z,1021.73
2019-02-21T19:50:07.672Z,1021.88
2019-02-21T19:55:02.926Z,1021.95
2019-02-21T19:59:58.506Z,1022.06
2019-02-21T20:04:54.317Z,1022.15
2019-02-21T20:09:50.057Z,1022.20
2019-02-21T20:14:45.804Z,1022.24
2019-02-21T20:19:43.484Z,1022.29
2019-02-21T20:24:38.669Z,1022.26
2019-02-21T20:29:34.476Z,1022.26
2019-02-21T20:34:30.771Z,1022.33
2019-02-21T20:39:26.190Z,1022.30
2019-02-21T20:44:22.281Z,1022.43
2019-02-21T20:49:18.032Z,1022.45
2019-02-21T20:54:13.834Z,1022.65
2019-02-21T20:59:09.608Z,1022.54
2019-02-21T21:04:05.309Z,1022.48
2019-02-21T21:09:01.096Z,1022.48
2019-02-21T21:13:56.936Z,1022.52
2019-02-21T21:18:52.221Z,1022.54
2019-02-21T21:23:48.071Z,1022.56
2019-02-21T21:28:43.879Z,1022.73
2019-02-21T21:33:40.016Z,1022.70
2019-02-21T21:38:35.957Z,1022.77
2019-02-21T21:43:31.637Z,1022.77
2019-02-21T21:48:27.264Z,1022.80
2019-02-21T21:53:23.090Z,1022.95
2019-02-21T21:58:18.724Z,1022.88
2019-02-21T22:03:14.073Z,1022.88
2019-02-21T22:08:09.823Z,1022.97
2019-02-21T22:13:05.781Z,1023.08
2019-02-21T22:18:01.697Z,1023.14
2019-02-21T22:22:57.312Z,1023.13
2019-02-21T22:27:53.339Z,1023.22
2019-02-21T22:32:49.107Z,1023.15
2019-02-21T22:37:44.627Z,1023.20
2019-02-21T22:42:40.310Z,1023.21
2019-02-21T22:47:36.332Z,1023.26
2019-02-21T22:52:32.232Z,1023.18
2019-02-21T22:57:28.025Z,1023.31
2019-02-21T23:02:23.842Z,1023.39
2019-02-21T23:07:20.535Z,1023.50
2019-02-21T23:12:16.045Z,1023.33
2019-02-21T23:17:11.503Z,1023.38
2019-02-21T23:22:07.794Z,1023.60
2019-02-21T23:27:03.549Z,1023.54
2019-02-21T23:32:03.185Z,1023.61
2019-02-21T23:36:57.977Z,1023.66
2019-02-21T23:41:54.417Z,1023.67
2019-02-21T23:46:50.278Z,1023.73
2019-02-21T23:51:46.771Z,1023.79
2019-02-21T23:56:42.440Z,1023.76
